createdAt,value
2017-07-27T00:00:56.670Z,14.13
2017-07-27T00:03:23.174Z,14.80
2017-07-27T00:05:49.633Z,14.18
2017-07-27T00:08:16.073Z,14.87
2017-07-27T00:10:42.549Z,14.30
2017-07-27T00:13:09.513Z,14.68
2017-07-27T00:15:35.941Z,14.60
2017-07-27T00:18:02.408Z,14.10
2017-07-27T00:20:28.897Z,14.70
2017-07-27T00:22:56.080Z,15.15
2017-07-27T00:25:22.555Z,14.30
2017-07-27T00:27:49.008Z,15.32
2017-07-27T00:30:15.479Z,15.00
2017-07-27T00:32:41.941Z,15.10
2017-07-27T00:35:08.346Z,15.05
2017-07-27T00:37:34.802Z,15.20
2017-07-27T00:40:01.290Z,15.73
2017-07-27T00:42:27.728Z,15.30
2017-07-27T00:44:54.896Z,16.10
2017-07-27T00:47:22.092Z,15.13
2017-07-27T00:49:48.546Z,14.80
2017-07-27T00:52:14.980Z,14.70
2017-07-27T00:54:42.175Z,15.70
2017-07-27T00:57:08.643Z,15.23
2017-07-27T00:59:35.189Z,14.80
2017-07-27T01:02:01.625Z,15.55
2017-07-27T01:04:28.793Z,15.05
2017-07-27T01:06:55.255Z,15.07
2017-07-27T01:09:22.609Z,15.30
2017-07-27T01:11:49.039Z,15.50
2017-07-27T01:14:15.563Z,15.10
2017-07-27T01:16:42.031Z,15.40
2017-07-27T01:19:08.535Z,15.00
2017-07-27T01:21:34.982Z,15.32
2017-07-27T01:24:01.423Z,16.17
2017-07-27T01:26:27.890Z,14.90
2017-07-27T01:28:54.343Z,14.63
2017-07-27T01:31:21.062Z,15.00
2017-07-27T01:33:47.549Z,15.20
2017-07-27T01:36:14.008Z,15.40
2017-07-27T01:38:41.448Z,15.90
2017-07-27T01:41:08.647Z,15.40
2017-07-27T01:43:35.184Z,15.60
2017-07-27T01:46:01.724Z,14.70
2017-07-27T01:48:28.960Z,15.20
2017-07-27T01:50:55.443Z,15.00
2017-07-27T01:53:21.935Z,15.35
2017-07-27T01:55:48.465Z,15.23
2017-07-27T01:58:16.329Z,14.95
2017-07-27T02:00:42.743Z,15.60
2017-07-27T02:03:09.236Z,14.60
2017-07-27T02:05:35.763Z,15.45
2017-07-27T02:08:02.192Z,14.55
2017-07-27T02:10:29.369Z,15.00
2017-07-27T02:12:56.592Z,14.82
2017-07-27T02:15:23.030Z,15.03
2017-07-27T02:17:49.559Z,15.80
2017-07-27T02:20:16.010Z,15.03
2017-07-27T02:22:43.180Z,14.73
2017-07-27T02:25:09.746Z,15.10
2017-07-27T02:27:37.120Z,14.80
2017-07-27T02:30:03.681Z,14.55
2017-07-27T02:33:29.286Z,14.90
2017-07-27T02:35:55.716Z,15.60
2017-07-27T02:38:22.264Z,14.60
2017-07-27T02:40:48.710Z,15.63
2017-07-27T02:43:15.907Z,15.05
2017-07-27T02:45:42.355Z,14.98
2017-07-27T02:48:08.827Z,15.32
2017-07-27T02:50:35.771Z,15.80
2017-07-27T02:53:02.329Z,15.40
2017-07-27T02:55:28.804Z,16.17
2017-07-27T02:57:55.248Z,16.50
2017-07-27T03:00:21.705Z,15.77
2017-07-27T03:02:48.262Z,16.40
2017-07-27T03:05:14.736Z,15.95
2017-07-27T03:07:41.279Z,16.48
2017-07-27T03:10:07.804Z,16.52
2017-07-27T03:12:34.272Z,16.00
2017-07-27T03:15:01.458Z,16.98
2017-07-27T03:17:28.018Z,17.10
2017-07-27T03:19:54.538Z,17.85
2017-07-27T03:22:21.134Z,17.42
2017-07-27T03:24:47.692Z,17.25
2017-07-27T03:27:14.162Z,18.30
2017-07-27T03:29:40.710Z,17.90
2017-07-27T03:32:07.136Z,19.00
2017-07-27T03:34:33.595Z,18.33
2017-07-27T03:37:00.768Z,17.95
2017-07-27T03:39:28.067Z,18.02
2017-07-27T03:41:54.629Z,18.47
2017-07-27T03:44:21.084Z,18.20
2017-07-27T03:46:47.563Z,18.02
2017-07-27T03:49:14.405Z,18.02
2017-07-27T03:51:40.815Z,18.50
2017-07-27T03:54:07.229Z,17.00
2017-07-27T03:56:33.717Z,17.90
2017-07-27T03:59:00.179Z,17.62
2017-07-27T04:01:27.101Z,18.55
2017-07-27T04:03:53.562Z,17.90
2017-07-27T04:06:20.612Z,19.52
2017-07-27T04:08:47.793Z,18.35
2017-07-27T04:11:14.262Z,18.07
2017-07-27T04:13:40.743Z,18.67
2017-07-27T04:16:07.202Z,18.70
2017-07-27T04:18:33.668Z,18.00
2017-07-27T04:21:00.114Z,17.80
2017-07-27T04:23:26.566Z,17.17
2017-07-27T04:25:53.013Z,18.20
2017-07-27T04:28:19.539Z,18.25
2017-07-27T04:30:45.973Z,17.77
2017-07-27T04:33:13.270Z,18.10
2017-07-27T04:35:39.708Z,18.00
2017-07-27T04:38:06.871Z,18.27
2017-07-27T04:40:33.343Z,17.98
2017-07-27T04:43:00.527Z,18.70
2017-07-27T04:45:26.983Z,19.48
2017-07-27T04:47:53.427Z,18.92
2017-07-27T04:50:20.613Z,20.02
2017-07-27T04:52:47.041Z,19.10
2017-07-27T04:55:13.472Z,18.90
2017-07-27T04:57:52.255Z,18.90
2017-07-27T05:00:19.117Z,17.40
2017-07-27T05:02:46.215Z,16.40
2017-07-27T05:05:12.634Z,18.17
2017-07-27T05:07:39.824Z,19.12
2017-07-27T05:10:06.882Z,15.38
2017-07-27T05:12:34.080Z,13.90
2017-07-27T05:15:00.526Z,12.98
2017-07-27T05:17:26.970Z,12.30
2017-07-27T05:19:53.529Z,11.35
2017-07-27T05:22:20.018Z,11.30
2017-07-27T05:24:46.546Z,11.10
2017-07-27T05:27:12.992Z,11.60
2017-07-27T05:29:40.272Z,11.40
2017-07-27T05:32:06.832Z,12.45
2017-07-27T05:34:33.279Z,12.23
2017-07-27T05:37:00.443Z,12.48
2017-07-27T05:39:27.645Z,11.63
2017-07-27T05:41:54.115Z,11.60
2017-07-27T05:44:20.537Z,11.52
2017-07-27T05:46:47.780Z,11.90
2017-07-27T05:49:14.225Z,11.43
2017-07-27T05:51:40.734Z,12.32
2017-07-27T05:54:07.292Z,12.10
2017-07-27T05:56:33.738Z,12.33
2017-07-27T05:59:00.910Z,10.60
2017-07-27T06:01:27.364Z,11.52
2017-07-27T06:03:54.549Z,12.10
2017-07-27T06:06:21.104Z,12.27
2017-07-27T06:08:47.552Z,12.10
2017-07-27T06:11:14.720Z,11.70
2017-07-27T06:13:42.010Z,12.40
2017-07-27T06:16:08.558Z,12.68
2017-07-27T06:18:35.738Z,12.68
2017-07-27T06:21:02.222Z,12.20
2017-07-27T06:23:29.061Z,12.63
2017-07-27T06:25:55.500Z,11.50
2017-07-27T06:28:22.787Z,11.20
2017-07-27T06:30:49.296Z,11.82
2017-07-27T06:33:15.734Z,11.73
2017-07-27T06:35:42.167Z,12.07
2017-07-27T06:38:08.647Z,12.00
2017-07-27T06:40:35.181Z,10.75
2017-07-27T06:43:01.631Z,11.15
2017-07-27T06:45:28.065Z,10.77
2017-07-27T06:47:55.300Z,11.40
2017-07-27T06:50:21.729Z,11.57
2017-07-27T06:52:48.148Z,10.32
2017-07-27T06:55:14.596Z,11.60
2017-07-27T06:57:41.192Z,11.65
2017-07-27T07:00:07.674Z,10.70
2017-07-27T07:02:34.176Z,11.50
2017-07-27T07:05:00.654Z,11.40
2017-07-27T07:07:27.574Z,10.67
2017-07-27T07:09:54.072Z,12.00
2017-07-27T07:12:21.336Z,10.50
2017-07-27T07:14:48.558Z,9.80
2017-07-27T07:17:15.011Z,10.40
2017-07-27T07:19:41.464Z,9.73
2017-07-27T07:22:07.893Z,9.43
2017-07-27T07:24:34.280Z,10.23
2017-07-27T07:27:00.725Z,10.90
2017-07-27T07:29:27.166Z,10.20
2017-07-27T07:31:53.589Z,9.60
2017-07-27T07:34:20.095Z,9.45
2017-07-27T07:36:46.574Z,10.15
2017-07-27T07:39:13.041Z,10.10
2017-07-27T07:41:39.477Z,8.50
2017-07-27T07:44:05.991Z,9.70
2017-07-27T07:46:33.215Z,9.38
2017-07-27T07:48:59.679Z,7.57
2017-07-27T07:51:26.182Z,7.20
2017-07-27T07:53:52.639Z,7.37
2017-07-27T07:56:19.217Z,7.37
2017-07-27T07:58:45.642Z,6.00
2017-07-27T08:01:12.808Z,5.80
2017-07-27T08:03:40.026Z,5.90
2017-07-27T08:06:06.490Z,6.30
2017-07-27T08:08:33.060Z,5.30
2017-07-27T08:11:01.134Z,5.53
2017-07-27T08:13:28.084Z,5.50
2017-07-27T08:15:55.179Z,5.27
2017-07-27T08:18:21.659Z,5.00
2017-07-27T08:20:48.705Z,4.95
2017-07-27T08:23:15.127Z,5.00
2017-07-27T08:25:41.585Z,5.57
2017-07-27T08:28:08.013Z,4.80
2017-07-27T08:30:34.481Z,5.30
2017-07-27T08:33:01.771Z,5.40
2017-07-27T08:35:28.964Z,5.90
2017-07-27T08:37:55.413Z,5.62
2017-07-27T08:40:21.961Z,5.30
2017-07-27T08:42:48.409Z,5.50
2017-07-27T08:45:14.834Z,5.60
2017-07-27T08:47:41.250Z,5.80
2017-07-27T08:50:07.659Z,5.50
2017-07-27T08:52:34.831Z,5.60
2017-07-27T08:55:01.354Z,5.60
2017-07-27T08:57:27.790Z,6.10
2017-07-27T08:59:54.200Z,5.70
2017-07-27T09:02:21.381Z,5.95
2017-07-27T09:04:49.084Z,5.90
2017-07-27T09:07:15.568Z,5.65
2017-07-27T09:09:42.087Z,5.40
2017-07-27T09:12:08.561Z,5.65
2017-07-27T09:14:35.006Z,6.10
2017-07-27T09:17:01.458Z,6.20
2017-07-27T09:19:28.129Z,5.80
2017-07-27T09:21:54.537Z,5.95
2017-07-27T09:24:20.983Z,6.30
2017-07-27T09:26:47.461Z,6.20
2017-07-27T09:29:14.757Z,6.40
2017-07-27T09:31:41.302Z,7.50
2017-07-27T09:34:08.592Z,7.20
2017-07-27T09:36:35.027Z,7.10
2017-07-27T09:39:02.394Z,7.15
2017-07-27T09:41:28.824Z,7.62
2017-07-27T09:43:55.335Z,7.62
2017-07-27T09:46:21.758Z,7.90
2017-07-27T09:48:48.154Z,7.90
2017-07-27T09:51:15.196Z,8.43
2017-07-27T09:53:42.368Z,9.25
2017-07-27T09:56:09.519Z,9.10
2017-07-27T09:58:35.975Z,8.65
2017-07-27T10:01:02.417Z,8.88
2017-07-27T10:03:29.028Z,8.10
2017-07-27T10:05:56.209Z,8.45
2017-07-27T10:08:22.673Z,9.50
2017-07-27T10:10:49.112Z,8.90
2017-07-27T10:13:15.523Z,9.20
2017-07-27T10:15:42.027Z,9.03
2017-07-27T10:18:08.481Z,10.07
2017-07-27T10:20:34.949Z,9.18
2017-07-27T10:23:01.402Z,9.50
2017-07-27T10:25:27.915Z,8.90
2017-07-27T10:27:54.873Z,9.80
2017-07-27T10:30:21.330Z,9.63
2017-07-27T10:32:47.762Z,9.57
2017-07-27T10:35:14.194Z,9.38
2017-07-27T10:37:40.744Z,9.90
2017-07-27T10:40:07.206Z,10.43
2017-07-27T10:42:33.624Z,9.98
2017-07-27T10:45:00.114Z,9.70
2017-07-27T10:47:26.636Z,11.15
2017-07-27T10:49:53.108Z,10.50
2017-07-27T10:52:20.290Z,10.35
2017-07-27T10:54:47.573Z,9.93
2017-07-27T10:57:13.997Z,9.97
2017-07-27T10:59:40.429Z,10.00
2017-07-27T11:02:07.425Z,10.40
2017-07-27T11:04:34.501Z,9.98
2017-07-27T11:07:01.745Z,10.05
2017-07-27T11:09:28.358Z,9.77
2017-07-27T11:11:54.792Z,9.07
2017-07-27T11:14:22.089Z,10.18
2017-07-27T11:16:48.595Z,8.05
2017-07-27T11:19:15.082Z,5.32
2017-07-27T11:21:41.507Z,5.60
2017-07-27T11:24:09.060Z,5.60
2017-07-27T11:26:35.595Z,5.00
2017-07-27T11:29:02.393Z,6.10
2017-07-27T11:31:29.033Z,6.60
2017-07-27T11:33:59.044Z,6.35
2017-07-27T11:36:32.144Z,6.05
2017-07-27T11:39:06.977Z,5.60
2017-07-27T11:41:33.784Z,4.97
2017-07-27T11:44:00.768Z,5.00
2017-07-27T11:46:27.572Z,4.70
2017-07-27T11:48:55.696Z,4.50
2017-07-27T11:51:25.901Z,4.60
2017-07-27T11:53:57.168Z,4.78
2017-07-27T11:56:26.609Z,4.20
2017-07-27T11:58:53.909Z,4.60
2017-07-27T12:01:20.789Z,4.30
2017-07-27T12:03:50.799Z,5.40
2017-07-27T12:06:18.405Z,4.90
2017-07-27T12:08:45.341Z,4.77
2017-07-27T12:11:11.951Z,4.20
2017-07-27T12:13:38.665Z,4.12
2017-07-27T12:16:05.425Z,4.20
2017-07-27T12:18:32.531Z,4.62
2017-07-27T12:21:00.938Z,4.37
2017-07-27T12:23:27.778Z,4.25
2017-07-27T12:25:55.239Z,3.90
2017-07-27T12:28:22.334Z,4.50
2017-07-27T12:30:48.790Z,4.00
2017-07-27T12:33:15.210Z,4.00
2017-07-27T12:35:41.778Z,4.00
2017-07-27T12:38:09.347Z,4.40
2017-07-27T12:40:35.802Z,4.70
2017-07-27T12:43:03.914Z,4.75
2017-07-27T12:45:32.158Z,4.80
2017-07-27T12:47:59.047Z,4.27
2017-07-27T12:50:27.434Z,4.50
2017-07-27T12:52:55.870Z,4.50
2017-07-27T12:55:23.709Z,5.00
2017-07-27T12:57:51.109Z,4.68
2017-07-27T13:00:18.051Z,4.90
2017-07-27T13:02:44.671Z,4.78
2017-07-27T13:05:11.348Z,4.55
2017-07-27T13:07:40.011Z,4.80
2017-07-27T13:10:06.652Z,5.00
2017-07-27T13:12:33.245Z,4.50
2017-07-27T13:15:00.548Z,4.37
2017-07-27T13:17:29.160Z,4.90
2017-07-27T13:19:55.794Z,5.90
2017-07-27T13:22:22.667Z,7.00
2017-07-27T13:24:50.216Z,4.40
2017-07-27T13:27:17.711Z,4.30
2017-07-27T13:29:44.358Z,4.60
2017-07-27T13:32:11.137Z,4.78
2017-07-27T13:34:37.614Z,4.40
2017-07-27T13:37:04.823Z,4.80
2017-07-27T13:39:31.703Z,4.60
2017-07-27T13:41:59.444Z,4.60
2017-07-27T13:44:26.383Z,4.78
2017-07-27T13:46:52.847Z,5.10
2017-07-27T13:49:19.783Z,5.65
2017-07-27T13:51:46.357Z,4.87
2017-07-27T13:54:12.919Z,4.82
2017-07-27T13:56:39.599Z,4.70
2017-07-27T13:59:06.108Z,4.30
2017-07-27T14:01:33.968Z,5.10
2017-07-27T14:04:00.701Z,4.80
2017-07-27T14:06:27.469Z,4.80
2017-07-27T14:08:54.013Z,5.90
2017-07-27T14:11:20.510Z,9.45
2017-07-27T14:13:47.172Z,5.40
2017-07-27T14:16:15.618Z,5.03
2017-07-27T14:18:43.240Z,5.20
2017-07-27T14:21:10.899Z,5.10
2017-07-27T14:23:37.410Z,5.60
2017-07-27T14:26:05.055Z,6.07
2017-07-27T14:28:33.130Z,4.45
2017-07-27T14:31:00.596Z,5.18
2017-07-27T14:33:27.324Z,4.90
2017-07-27T14:35:54.016Z,4.45
2017-07-27T14:38:22.529Z,4.75
2017-07-27T14:40:49.340Z,4.68
2017-07-27T14:43:16.118Z,4.40
2017-07-27T14:45:44.510Z,4.10
2017-07-27T14:48:11.729Z,4.40
2017-07-27T14:50:38.287Z,4.15
2017-07-27T14:53:04.920Z,6.03
2017-07-27T14:55:31.507Z,8.82
2017-07-27T14:57:58.181Z,5.30
2017-07-27T15:00:24.775Z,4.10
2017-07-27T15:02:52.631Z,4.30
2017-07-27T15:05:19.378Z,4.12
2017-07-27T15:07:45.955Z,3.30
2017-07-27T15:10:13.598Z,4.68
2017-07-27T15:12:40.279Z,3.50
2017-07-27T15:15:06.779Z,3.40
2017-07-27T15:17:33.675Z,3.90
2017-07-27T15:20:00.257Z,2.90
2017-07-27T15:22:26.929Z,3.12
2017-07-27T15:24:53.660Z,2.87
2017-07-27T15:27:20.846Z,3.00
2017-07-27T15:29:48.022Z,3.53
2017-07-27T15:32:14.564Z,3.10
2017-07-27T15:34:42.988Z,2.90
2017-07-27T15:37:10.817Z,3.30
2017-07-27T15:39:37.797Z,2.97
2017-07-27T15:42:04.405Z,2.70
2017-07-27T15:44:30.883Z,2.90
2017-07-27T15:46:57.625Z,3.10
2017-07-27T15:49:24.237Z,3.60
2017-07-27T15:51:50.699Z,3.12
2017-07-27T15:54:17.729Z,2.97
2017-07-27T15:56:44.499Z,2.95
2017-07-27T15:59:12.057Z,3.30
2017-07-27T16:01:38.595Z,3.70
2017-07-27T16:04:05.793Z,3.30
2017-07-27T16:06:34.661Z,3.40
2017-07-27T16:09:01.132Z,3.55
2017-07-27T16:11:27.614Z,3.70
2017-07-27T16:13:54.067Z,3.50
2017-07-27T16:16:22.664Z,3.40
2017-07-27T16:18:49.184Z,3.50
2017-07-27T16:21:18.075Z,3.90
2017-07-27T16:23:45.650Z,3.73
2017-07-27T16:26:12.374Z,3.90
2017-07-27T16:28:43.634Z,3.90
2017-07-27T16:31:11.118Z,4.10
2017-07-27T16:33:37.586Z,3.60
2017-07-27T16:36:04.438Z,3.90
2017-07-27T16:38:31.734Z,3.83
2017-07-27T16:41:01.890Z,4.45
2017-07-27T16:43:30.265Z,5.00
2017-07-27T16:45:58.139Z,4.62
2017-07-27T16:48:25.679Z,4.97
2017-07-27T16:50:54.110Z,4.87
2017-07-27T16:53:20.807Z,5.40
2017-07-27T16:55:48.138Z,7.87
2017-07-27T16:58:17.267Z,6.40
2017-07-27T17:00:44.467Z,5.18
2017-07-27T17:03:11.173Z,6.30
2017-07-27T17:05:38.121Z,5.50
2017-07-27T17:08:04.779Z,6.20
2017-07-27T17:10:32.308Z,6.43
2017-07-27T17:12:58.804Z,6.40
2017-07-27T17:15:26.404Z,6.35
2017-07-27T17:17:53.216Z,6.60
2017-07-27T17:20:19.736Z,7.15
2017-07-27T17:22:47.090Z,7.30
2017-07-27T17:25:13.648Z,6.97
2017-07-27T17:27:44.650Z,7.03
2017-07-27T17:30:12.840Z,6.30
2017-07-27T17:32:39.439Z,5.43
2017-07-27T17:35:08.406Z,6.40
2017-07-27T17:37:37.849Z,6.28
2017-07-27T17:40:04.817Z,5.80
2017-07-27T17:42:36.420Z,5.35
2017-07-27T17:45:03.259Z,5.50
2017-07-27T17:47:29.963Z,5.85
2017-07-27T17:49:57.521Z,5.70
2017-07-27T17:52:24.163Z,5.40
2017-07-27T17:54:51.979Z,6.43
2017-07-27T17:57:20.285Z,6.80
2017-07-27T17:59:48.025Z,7.10
2017-07-27T18:02:15.428Z,6.07
2017-07-27T18:04:43.165Z,5.90
2017-07-27T18:07:10.588Z,5.78
2017-07-27T18:09:39.328Z,5.50
2017-07-27T18:12:06.812Z,5.82
2017-07-27T18:14:36.506Z,5.37
2017-07-27T18:17:04.278Z,5.30
2017-07-27T18:19:31.271Z,4.90
2017-07-27T18:21:58.567Z,5.10
2017-07-27T18:24:27.022Z,5.10
2017-07-27T18:26:55.342Z,5.18
2017-07-27T18:29:22.771Z,6.82
2017-07-27T18:31:49.577Z,6.90
2017-07-27T18:34:16.511Z,6.55
2017-07-27T18:36:43.531Z,6.20
2017-07-27T18:39:10.387Z,5.15
2017-07-27T18:41:37.458Z,4.80
2017-07-27T18:44:04.260Z,5.13
2017-07-27T18:46:31.555Z,5.60
2017-07-27T18:48:58.910Z,5.10
2017-07-27T18:51:26.662Z,4.80
2017-07-27T18:53:53.194Z,5.60
2017-07-27T18:56:21.268Z,6.18
2017-07-27T18:58:49.055Z,6.00
2017-07-27T19:01:16.429Z,6.10
2017-07-27T19:03:42.984Z,5.35
2017-07-27T19:06:10.415Z,5.20
2017-07-27T19:08:38.148Z,4.40
2017-07-27T19:11:06.864Z,5.00
2017-07-27T19:13:36.378Z,5.78
2017-07-27T19:16:03.858Z,5.40
2017-07-27T19:18:33.305Z,5.55
2017-07-27T19:21:01.475Z,5.10
2017-07-27T19:23:29.074Z,5.18
2017-07-27T19:25:57.660Z,5.20
2017-07-27T19:28:25.539Z,5.18
2017-07-27T19:30:52.412Z,4.90
2017-07-27T19:33:20.913Z,4.50
2017-07-27T19:35:50.767Z,4.70
2017-07-27T19:38:19.656Z,4.90
2017-07-27T19:40:49.997Z,4.60
2017-07-27T19:43:18.776Z,5.50
2017-07-27T19:45:48.105Z,4.62
2017-07-27T19:48:15.401Z,5.45
2017-07-27T19:50:44.106Z,5.25
2017-07-27T19:53:11.181Z,4.60
2017-07-27T19:55:39.985Z,4.93
2017-07-27T19:58:09.027Z,4.45
2017-07-27T20:00:36.682Z,4.28
2017-07-27T20:03:03.182Z,4.32
2017-07-27T20:05:30.317Z,4.20
2017-07-27T20:07:56.897Z,4.30
2017-07-27T20:10:26.293Z,3.90
2017-07-27T20:12:53.770Z,4.30
2017-07-27T20:15:20.572Z,4.30
2017-07-27T20:17:47.194Z,4.53
2017-07-27T20:20:13.640Z,4.10
2017-07-27T20:22:40.619Z,4.10
2017-07-27T20:25:07.791Z,4.60
2017-07-27T20:27:35.321Z,4.80
2017-07-27T20:30:02.694Z,4.40
2017-07-27T20:32:31.442Z,4.00
2017-07-27T20:34:59.471Z,5.00
2017-07-27T20:37:26.819Z,5.00
2017-07-27T20:39:53.379Z,5.12
2017-07-27T20:42:20.474Z,4.10
2017-07-27T20:44:47.104Z,4.85
2017-07-27T20:47:15.078Z,4.50
2017-07-27T20:49:42.066Z,4.37
2017-07-27T20:52:11.111Z,4.78
2017-07-27T20:54:38.456Z,4.60
2017-07-27T20:57:05.246Z,4.55
2017-07-27T20:59:33.140Z,4.67
2017-07-27T21:02:00.460Z,5.00
2017-07-27T21:04:28.064Z,4.97
2017-07-27T21:06:54.760Z,4.95
2017-07-27T21:09:21.528Z,5.10
2017-07-27T21:11:48.102Z,5.20
2017-07-27T21:14:14.572Z,4.97
2017-07-27T21:16:42.426Z,5.12
2017-07-27T21:19:09.274Z,5.43
2017-07-27T21:21:36.378Z,6.10
2017-07-27T21:24:04.057Z,5.30
2017-07-27T21:26:30.774Z,5.28
2017-07-27T21:28:57.314Z,6.03
2017-07-27T21:31:25.081Z,5.60
2017-07-27T21:33:52.506Z,4.90
2017-07-27T21:36:20.111Z,5.80
2017-07-27T21:38:47.480Z,5.90
2017-07-27T21:41:15.383Z,5.80
2017-07-27T21:43:42.581Z,6.00
2017-07-27T21:46:09.171Z,5.60
2017-07-27T21:48:35.891Z,5.80
2017-07-27T21:51:02.733Z,5.90
2017-07-27T21:53:31.341Z,5.68
2017-07-27T21:55:58.718Z,5.47
2017-07-27T21:58:26.100Z,5.80
2017-07-27T22:00:53.534Z,6.05
2017-07-27T22:03:20.168Z,5.43
2017-07-27T22:05:47.618Z,5.87
2017-07-27T22:08:16.017Z,6.50
2017-07-27T22:10:42.800Z,5.50
2017-07-27T22:13:09.397Z,4.75
2017-07-27T22:15:35.954Z,4.97
2017-07-27T22:18:03.738Z,3.60
2017-07-27T22:20:33.403Z,3.70
2017-07-27T22:22:59.988Z,4.00
2017-07-27T22:25:29.124Z,3.87
2017-07-27T22:27:56.466Z,3.75
2017-07-27T22:30:23.091Z,3.60
2017-07-27T22:32:51.111Z,3.70
2017-07-27T22:35:18.470Z,3.60
2017-07-27T22:37:45.983Z,3.60
2017-07-27T22:40:14.405Z,3.90
2017-07-27T22:42:42.255Z,2.85
2017-07-27T22:45:10.416Z,3.10
2017-07-27T22:47:37.897Z,2.87
2017-07-27T22:50:06.728Z,3.10
2017-07-27T22:52:34.132Z,3.50
2017-07-27T22:55:03.012Z,2.62
2017-07-27T22:57:30.569Z,2.90
2017-07-27T22:59:57.528Z,2.70
2017-07-27T23:02:24.552Z,2.60
2017-07-27T23:04:52.178Z,2.67
2017-07-27T23:07:20.234Z,2.80
2017-07-27T23:09:48.552Z,2.95
2017-07-27T23:12:15.065Z,3.00
2017-07-27T23:14:42.509Z,2.95
2017-07-27T23:17:10.064Z,3.12
2017-07-27T23:19:38.227Z,3.20
2017-07-27T23:22:05.943Z,3.30
2017-07-27T23:24:34.807Z,3.85
2017-07-27T23:27:02.287Z,3.30
2017-07-27T23:29:28.809Z,3.40
2017-07-27T23:31:55.289Z,3.60
2017-07-27T23:34:21.823Z,3.15
2017-07-27T23:36:48.270Z,3.17
2017-07-27T23:39:15.476Z,3.30
2017-07-27T23:41:42.112Z,3.53
2017-07-27T23:44:08.568Z,3.72
2017-07-27T23:46:35.054Z,3.80
2017-07-27T23:49:01.582Z,3.90
2017-07-27T23:51:28.530Z,4.00
2017-07-27T23:53:56.232Z,4.00
2017-07-27T23:56:22.668Z,4.10
2017-07-27T23:58:49.862Z,4.40
